Acadie — FV7722 — position and weather

sailwx.info

Track history (hours):
 
Tides and Currents Weather Stations Pressure Air Temp Water Temp Dewpoint Dewpoint Depression Visibility Wind Speed Wind Dir Waves Ship Positions

Acadie

Last reported at 2016-Jul-27 15:15 UTC. Time now 2016-Aug-25 00:58 UTC.
Position N 47°44' W 003°21'.
Warning: this ship's position is 28 days out of date.

Length 45 m.

Type: Passenger vessel. MMSI: 227002780.

Date/timePositionNaut miles runAvg speedWind from/ knotsBaromVisibWave heightAir tempDewpointWater temp
2016-Jul-27 15:15N 47°44' W 003°21'1 1.7
2016-Jul-27 14:33N 47°43' W 003°22'6 5.8
2016-Jul-27 13:33N 47°39' W 003°27'5 1.1
2016-Jul-27 09:33N 47°42' W 003°22'3 2.5
2016-Jul-27 08:33N 47°44' W 003°21'7 7.0
2016-Jul-27 07:33N 47°39' W 003°27'3 2.9
2016-Jul-27 06:33N 47°41' W 003°24'4 4.2
2016-Jul-27 05:33N 47°44' W 003°21'7 7.0
2016-Jul-27 04:33N 47°39' W 003°27'0 0.0
2016-Jul-26 18:08N 47°39' W 003°27'4 7.3
2016-Jul-26 17:34N 47°42' W 003°23'1 1.2
2016-Jul-26 16:34N 47°41' W 003°24'1 1.3
2016-Jul-26 15:34N 47°42' W 003°23'2 1.7
2016-Jul-26 14:34N 47°43' W 003°22'6 5.8
2016-Jul-26 13:34N 47°39' W 003°27'0 0.0
2016-Jul-26 10:20N 47°39' W 003°27'5 5.9
2016-Jul-26 09:33N 47°42' W 003°22'3 2.6
2016-Jul-26 08:34N 47°44' W 003°21'7 7.0
2016-Jul-26 07:34N 47°39' W 003°27'3 2.6
2016-Jul-26 06:33N 47°41' W 003°25'4 4.4
2016-Jul-26 05:33N 47°44' W 003°21'7 7.0
2016-Jul-26 04:33N 47°39' W 003°27'4 0.4
2016-Jul-25 17:34N 47°42' W 003°22'3 2.7
2016-Jul-25 16:33N 47°44' W 003°21'0 0.0
2016-Jul-25 15:34N 47°44' W 003°21'1 1.5
2016-Jul-25 14:33N 47°43' W 003°22'6 5.5
2016-Jul-25 13:33N 47°39' W 003°27'0 0.0
2016-Jul-25 10:28N 47°39' W 003°27'5 5.6
2016-Jul-25 09:34N 47°43' W 003°22'2 1.9
2016-Jul-25 08:33N 47°44' W 003°21'7 7.0
2016-Jul-25 07:33N 47°39' W 003°27'3 3.0
2016-Jul-25 06:33N 47°41' W 003°24'4 4.0
2016-Jul-25 05:33N 47°44' W 003°21'7 7.0
2016-Jul-25 04:33N 47°39' W 003°27'5 0.4
2016-Jul-24 17:34N 47°42' W 003°22'2 2.5
2016-Jul-24 16:34N 47°44' W 003°21'0 0.0
2016-Jul-24 15:34N 47°44' W 003°21'1 1.3
2016-Jul-24 14:34N 47°43' W 003°22'6 5.7
2016-Jul-24 13:34N 47°39' W 003°27'0 0.0
2016-Jul-24 10:03N 47°39' W 003°27'5 9.9
2016-Jul-24 09:33N 47°42' W 003°22'2 2.2
2016-Jul-24 08:34N 47°44' W 003°21'7 7.0
2016-Jul-24 07:34N 47°39' W 003°27'3 3.0
2016-Jul-24 06:34N 47°41' W 003°24'4 4.0
2016-Jul-24 05:33N 47°44' W 003°21'7 7.0
2016-Jul-24 04:34N 47°39' W 003°27'4 0.4
2016-Jul-23 17:33N 47°42' W 003°23'3 3.0
2016-Jul-23 16:33N 47°44' W 003°21'0 0.0
2016-Jul-23 15:33N 47°44' W 003°21'2 2.3
2016-Jul-23 14:33N 47°42' W 003°22'5 4.8
2016-Jul-23 13:33N 47°39' W 003°27'0 0.0
2016-Jul-23 10:18N 47°39' W 003°27'5 7.4
2016-Jul-23 09:33N 47°43' W 003°22'2 1.5
2016-Jul-23 08:33N 47°44' W 003°21'7 7.0
2016-Jul-23 07:33N 47°39' W 003°27'3 3.2
2016-Jul-23 06:33N 47°41' W 003°24'3 1.6
2016-Jul-23 04:33N 47°39' W 003°27'0 0.0
2016-Jul-22 18:10N 47°39' W 003°27'610.1
2016-Jul-22 17:33N 47°44' W 003°22'5 5.1
2016-Jul-22 16:34N 47°39' W 003°26'5 4.9
2016-Jul-22 15:34N 47°44' W 003°22'0 0.3
2016-Jul-22 14:33N 47°44' W 003°21'6 6.2
2016-Jul-22 13:33N 47°39' W 003°27'0 0.0
2016-Jul-22 10:13N 47°39' W 003°27'5 7.1
2016-Jul-22 09:34N 47°42' W 003°22'2 2.4
2016-Jul-22 08:33N 47°44' W 003°21'7 7.0
2016-Jul-22 07:33N 47°39' W 003°27'7 3.5
2016-Jul-22 05:34N 47°44' W 003°21'7 7.0
2016-Jul-22 04:33N 47°39' W 003°27'0 0.0
2016-Jul-21 18:32N 47°39' W 003°27'7 7.2
2016-Jul-21 17:33N 47°44' W 003°21'7 6.8
2016-Jul-21 16:34N 47°39' W 003°27'4 4.0
2016-Jul-21 15:33N 47°42' W 003°23'2 2.1
2016-Jul-21 14:33N 47°44' W 003°22'6 1.4
2016-Jul-21 10:10N 47°39' W 003°27'5 7.5
2016-Jul-21 09:33N 47°42' W 003°22'2 2.5
2016-Jul-21 08:33N 47°44' W 003°21'7 6.7
2016-Jul-21 07:33N 47°39' W 003°27'3 2.9
2016-Jul-21 06:33N 47°41' W 003°24'3 2.9
2016-Jul-21 05:33N 47°44' W 003°21'6 6.2
2016-Jul-21 04:33N 47°39' W 003°27'0 0.0
2016-Jul-20 18:03N 47°39' W 003°27'5 9.1
2016-Jul-20 17:33N 47°42' W 003°22'2 2.5
2016-Jul-20 16:34N 47°44' W 003°21'0 0.0
2016-Jul-20 15:33N 47°44' W 003°21'1 1.1
2016-Jul-20 14:33N 47°43' W 003°22'6 1.4
2016-Jul-20 10:18N 47°39' W 003°27'5 7.4
2016-Jul-20 09:34N 47°43' W 003°22'2 1.5
2016-Jul-20 08:31N 47°44' W 003°21'7 7.3
2016-Jul-20 07:33N 47°39' W 003°27'3 2.8
2016-Jul-20 06:33N 47°41' W 003°24'3 3.4
2016-Jul-20 05:33N 47°44' W 003°21'6 6.1
2016-Jul-20 04:31N 47°39' W 003°27'0 0.0
2016-Jul-19 18:04N 47°39' W 003°27'5 9.0
2016-Jul-19 17:33N 47°42' W 003°22'2 2.5
2016-Jul-19 16:33N 47°44' W 003°21'0 0.0
2016-Jul-19 15:33N 47°44' W 003°21'1 1.4
2016-Jul-19 14:33N 47°43' W 003°22'6 5.6
2016-Jul-19 13:33N 47°39' W 003°27'0 0.0
2016-Jul-19 10:09N 47°39' W 003°27'6 9.5
2016-Jul-19 09:34N 47°43' W 003°22'1 1.3
2016-Jul-19 08:34N 47°44' W 003°21'7 7.0
2016-Jul-19 07:34N 47°39' W 003°27'0 0.0
2016-Jul-19 04:33N 47°39' W 003°27'0 0.0
2016-Jul-18 18:07N 47°39' W 003°27'5 8.7
2016-Jul-18 17:33N 47°42' W 003°22'2 2.2
2016-Jul-18 16:33N 47°44' W 003°21'0 0.0
2016-Jul-18 15:33N 47°44' W 003°21'1 1.4
2016-Jul-18 14:33N 47°43' W 003°22'6 5.6
2016-Jul-18 13:33N 47°39' W 003°27'0 0.0
2016-Jul-18 10:33N 47°39' W 003°27'6 6.0
2016-Jul-18 09:33N 47°44' W 003°22'0 0.4
2016-Jul-18 08:33N 47°44' W 003°21'6 6.4
2016-Jul-18 07:33N 47°39' W 003°27'5 4.7
2016-Jul-18 06:33N 47°42' W 003°22'2 1.9
2016-Jul-18 05:33N 47°44' W 003°21'7 6.5
2016-Jul-18 04:33N 47°39' W 003°27'0 0.0
2016-Jul-17 18:12N 47°39' W 003°27'5 7.1
2016-Jul-17 17:33N 47°42' W 003°22'3 2.5
2016-Jul-17 16:33N 47°44' W 003°21'0 0.0
2016-Jul-17 15:33N 47°44' W 003°21'  
Track history (hours):
 
Tides and Currents Weather Stations Pressure Air Temp Water Temp Dewpoint Dewpoint Depression Visibility Wind Speed Wind Dir Waves Ship Positions

Acadie

Last reported at 2016-Jul-27 15:15 UTC. Time now 2016-Aug-25 00:58 UTC.
Position N 47°44' W 003°21'.
Warning: this ship's position is 28 days out of date.

Length 45 m.

Type: Passenger vessel. MMSI: 227002780.

Date/timePositionNaut miles runAvg speedWind from/ knotsBaromVisibWave heightAir tempDewpointWater temp
2016-Jul-27 15:15N 47°44' W 003°21'1 1.7
2016-Jul-27 14:33N 47°43' W 003°22'6 5.8
2016-Jul-27 13:33N 47°39' W 003°27'5 1.1
2016-Jul-27 09:33N 47°42' W 003°22'3 2.5
2016-Jul-27 08:33N 47°44' W 003°21'7 7.0
2016-Jul-27 07:33N 47°39' W 003°27'3 2.9
2016-Jul-27 06:33N 47°41' W 003°24'4 4.2
2016-Jul-27 05:33N 47°44' W 003°21'7 7.0
2016-Jul-27 04:33N 47°39' W 003°27'0 0.0
2016-Jul-26 18:08N 47°39' W 003°27'4 7.3
2016-Jul-26 17:34N 47°42' W 003°23'1 1.2
2016-Jul-26 16:34N 47°41' W 003°24'1 1.3
2016-Jul-26 15:34N 47°42' W 003°23'2 1.7
2016-Jul-26 14:34N 47°43' W 003°22'6 5.8
2016-Jul-26 13:34N 47°39' W 003°27'0 0.0
2016-Jul-26 10:20N 47°39' W 003°27'5 5.9
2016-Jul-26 09:33N 47°42' W 003°22'3 2.6
2016-Jul-26 08:34N 47°44' W 003°21'7 7.0
2016-Jul-26 07:34N 47°39' W 003°27'3 2.6
2016-Jul-26 06:33N 47°41' W 003°25'4 4.4
2016-Jul-26 05:33N 47°44' W 003°21'7 7.0
2016-Jul-26 04:33N 47°39' W 003°27'4 0.4
2016-Jul-25 17:34N 47°42' W 003°22'3 2.7
2016-Jul-25 16:33N 47°44' W 003°21'0 0.0
2016-Jul-25 15:34N 47°44' W 003°21'1 1.5
2016-Jul-25 14:33N 47°43' W 003°22'6 5.5
2016-Jul-25 13:33N 47°39' W 003°27'0 0.0
2016-Jul-25 10:28N 47°39' W 003°27'5 5.6
2016-Jul-25 09:34N 47°43' W 003°22'2 1.9
2016-Jul-25 08:33N 47°44' W 003°21'7 7.0
2016-Jul-25 07:33N 47°39' W 003°27'3 3.0
2016-Jul-25 06:33N 47°41' W 003°24'4 4.0
2016-Jul-25 05:33N 47°44' W 003°21'7 7.0
2016-Jul-25 04:33N 47°39' W 003°27'5 0.4
2016-Jul-24 17:34N 47°42' W 003°22'2 2.5
2016-Jul-24 16:34N 47°44' W 003°21'0 0.0
2016-Jul-24 15:34N 47°44' W 003°21'1 1.3
2016-Jul-24 14:34N 47°43' W 003°22'6 5.7
2016-Jul-24 13:34N 47°39' W 003°27'0 0.0
2016-Jul-24 10:03N 47°39' W 003°27'5 9.9
2016-Jul-24 09:33N 47°42' W 003°22'2 2.2
2016-Jul-24 08:34N 47°44' W 003°21'7 7.0
2016-Jul-24 07:34N 47°39' W 003°27'3 3.0
2016-Jul-24 06:34N 47°41' W 003°24'4 4.0
2016-Jul-24 05:33N 47°44' W 003°21'7 7.0
2016-Jul-24 04:34N 47°39' W 003°27'4 0.4
2016-Jul-23 17:33N 47°42' W 003°23'3 3.0
2016-Jul-23 16:33N 47°44' W 003°21'0 0.0
2016-Jul-23 15:33N 47°44' W 003°21'2 2.3
2016-Jul-23 14:33N 47°42' W 003°22'5 4.8
2016-Jul-23 13:33N 47°39' W 003°27'0 0.0
2016-Jul-23 10:18N 47°39' W 003°27'5 7.4
2016-Jul-23 09:33N 47°43' W 003°22'2 1.5
2016-Jul-23 08:33N 47°44' W 003°21'7 7.0
2016-Jul-23 07:33N 47°39' W 003°27'3 3.2
2016-Jul-23 06:33N 47°41' W 003°24'3 1.6
2016-Jul-23 04:33N 47°39' W 003°27'0 0.0
2016-Jul-22 18:10N 47°39' W 003°27'610.1
2016-Jul-22 17:33N 47°44' W 003°22'5 5.1
2016-Jul-22 16:34N 47°39' W 003°26'5 4.9
2016-Jul-22 15:34N 47°44' W 003°22'0 0.3
2016-Jul-22 14:33N 47°44' W 003°21'6 6.2
2016-Jul-22 13:33N 47°39' W 003°27'0 0.0
2016-Jul-22 10:13N 47°39' W 003°27'5 7.1
2016-Jul-22 09:34N 47°42' W 003°22'2 2.4
2016-Jul-22 08:33N 47°44' W 003°21'7 7.0
2016-Jul-22 07:33N 47°39' W 003°27'7 3.5
2016-Jul-22 05:34N 47°44' W 003°21'7 7.0
2016-Jul-22 04:33N 47°39' W 003°27'0 0.0
2016-Jul-21 18:32N 47°39' W 003°27'7 7.2
2016-Jul-21 17:33N 47°44' W 003°21'7 6.8
2016-Jul-21 16:34N 47°39' W 003°27'4 4.0
2016-Jul-21 15:33N 47°42' W 003°23'2 2.1
2016-Jul-21 14:33N 47°44' W 003°22'6 1.4
2016-Jul-21 10:10N 47°39' W 003°27'5 7.5
2016-Jul-21 09:33N 47°42' W 003°22'2 2.5
2016-Jul-21 08:33N 47°44' W 003°21'7 6.7
2016-Jul-21 07:33N 47°39' W 003°27'3 2.9
2016-Jul-21 06:33N 47°41' W 003°24'3 2.9
2016-Jul-21 05:33N 47°44' W 003°21'6 6.2
2016-Jul-21 04:33N 47°39' W 003°27'0 0.0
2016-Jul-20 18:03N 47°39' W 003°27'5 9.1
2016-Jul-20 17:33N 47°42' W 003°22'2 2.5
2016-Jul-20 16:34N 47°44' W 003°21'0 0.0
2016-Jul-20 15:33N 47°44' W 003°21'1 1.1
2016-Jul-20 14:33N 47°43' W 003°22'6 1.4
2016-Jul-20 10:18N 47°39' W 003°27'5 7.4
2016-Jul-20 09:34N 47°43' W 003°22'2 1.5
2016-Jul-20 08:31N 47°44' W 003°21'7 7.3
2016-Jul-20 07:33N 47°39' W 003°27'3 2.8
2016-Jul-20 06:33N 47°41' W 003°24'3 3.4
2016-Jul-20 05:33N 47°44' W 003°21'6 6.1
2016-Jul-20 04:31N 47°39' W 003°27'0 0.0
2016-Jul-19 18:04N 47°39' W 003°27'5 9.0
2016-Jul-19 17:33N 47°42' W 003°22'2 2.5
2016-Jul-19 16:33N 47°44' W 003°21'0 0.0
2016-Jul-19 15:33N 47°44' W 003°21'1 1.4
2016-Jul-19 14:33N 47°43' W 003°22'6 5.6
2016-Jul-19 13:33N 47°39' W 003°27'0 0.0
2016-Jul-19 10:09N 47°39' W 003°27'6 9.5
2016-Jul-19 09:34N 47°43' W 003°22'1 1.3
2016-Jul-19 08:34N 47°44' W 003°21'7 7.0
2016-Jul-19 07:34N 47°39' W 003°27'0 0.0
2016-Jul-19 04:33N 47°39' W 003°27'0 0.0
2016-Jul-18 18:07N 47°39' W 003°27'5 8.7
2016-Jul-18 17:33N 47°42' W 003°22'2 2.2
2016-Jul-18 16:33N 47°44' W 003°21'0 0.0
2016-Jul-18 15:33N 47°44' W 003°21'1 1.4
2016-Jul-18 14:33N 47°43' W 003°22'6 5.6
2016-Jul-18 13:33N 47°39' W 003°27'0 0.0
2016-Jul-18 10:33N 47°39' W 003°27'6 6.0
2016-Jul-18 09:33N 47°44' W 003°22'0 0.4
2016-Jul-18 08:33N 47°44' W 003°21'6 6.4
2016-Jul-18 07:33N 47°39' W 003°27'5 4.7
2016-Jul-18 06:33N 47°42' W 003°22'2 1.9
2016-Jul-18 05:33N 47°44' W 003°21'7 6.5
2016-Jul-18 04:33N 47°39' W 003°27'0 0.0
2016-Jul-17 18:12N 47°39' W 003°27'5 7.1
2016-Jul-17 17:33N 47°42' W 003°22'3 2.5
2016-Jul-17 16:33N 47°44' W 003°21'0 0.0
2016-Jul-17 15:33N 47°44' W 003°21'  

Dump ship's entire track history